Lake Clark National Park, AK

8:36 PM AKDT on July 25, 2016 (GMT -0800)
Sparrevohn | | Change Station

Elev 1588 ft 61.10 °N, 155.57 °W | Updated 20 minutes ago

Light Rain Showers
Light Showers Rain
59 °F
Feels Like 59 °F
N
1
Wind Variable Wind from North

Today
High -- | Low -- °F
--% Chance of Precip.
Yesterday
High -- | Low -- °F
Precip. -- in
Pressure 29.73 in
Visibility 10.0 miles
Clouds Mostly Cloudy 3900 ft
Mostly Cloudy 12000 ft
Dew Point 54 °F
Humidity 82%
Rainfall 0.07 in
Snow Depth Not available.
5:41 AM 11:05 PM
Waning Gibbous, 59% visible
SPECI PASV 260416Z AUTO 01001KT 10SM -SHRA BKN039 BKN120 15/12 A2974 RMK AO2 SLP066
Pressure 29.73 in
Visibility 10.0 miles
Clouds Mostly Cloudy 3900 ft
Mostly Cloudy 12000 ft
Dew Point 54 °F
Humidity 82%
Rainfall 0.07 in
Snow Depth Not available.
5:41 AM 11:05 PM
Waning Gibbous, 59% visible
SPECI PASV 260416Z AUTO 01001KT 10SM -SHRA BKN039 BKN120 15/12 A2974 RMK AO2 SLP066

10-Day Weather Forecast

Almanac

Astronomy

Jul. 25, 2016 Rise Set
Actual Time
Civil Twilight
Nautical Twilight
Astronomical Twilight
Moon
Length of Visible Light
Length of Day
Tomorrow will be .
, % of the Moon is Illuminated

Today's Extremes

State Highs State Lows

Community

WunderPhotos

Upload Photos

1,927,534 photos uploaded!

WunderBlog® & News

Nearby

Air Quality

  Air Quality AQ Index Pollutant
Not available.

Snow Depth

Station Depth Elevation

Earthquake Activity

City Distance Mag. Time & Date
Minimum magnitude displayed is 2.5.

Coastal Water Temperatures

Place Temperature

Stations

Nearby Weather Stations

Station Location Temp. Windchill Dew Point Humidity Wind Precip. Elev Updated Type
                   

Watches & Warnings

There are currently no watches in effect.